Time;durP1;ratioP1;P1;durP2;ratioP2;P2;SDS_P1;SDS_P2;PMS_P1;PMS_P2;Temp;Humidity;BMP_temperature;BMP_pressure;BME280_temperature;BME280_humidity;BME280_pressure;Samples;Min_cycle;Max_cycle;Signal;HPM_P1;HPM_P2
2021/10/13 00:02:06;;;;;;;5.00;1.92;;;22.60;58.60;;;;;;5204490;28;20072;-84
2021/10/13 00:04:39;;;;;;;9.33;1.90;;;22.60;58.70;;;;;;5209285;28;20053;-83
2021/10/13 00:07:11;;;;;;;4.43;1.25;;;22.60;58.70;;;;;;5194414;28;20299;-83
2021/10/13 00:09:45;;;;;;;4.28;1.88;;;22.60;58.70;;;;;;5212223;28;20037;-83
2021/10/13 00:12:18;;;;;;;7.43;2.00;;;22.60;58.70;;;;;;5194120;28;20041;-83
2021/10/13 00:14:51;;;;;;;7.90;1.80;;;22.60;58.90;;;;;;5211933;28;20095;-83
2021/10/13 00:17:24;;;;;;;4.93;2.07;;;22.50;58.80;;;;;;5212464;28;20068;-82
2021/10/13 00:19:57;;;;;;;6.22;2.10;;;22.60;58.90;;;;;;5212724;28;20486;-83
2021/10/13 00:22:30;;;;;;;6.30;1.83;;;22.50;58.70;;;;;;5211421;28;20056;-83
2021/10/13 00:25:05;;;;;;;8.32;2.33;;;22.50;58.60;;;;;;5210755;28;20407;-83
2021/10/13 00:27:37;;;;;;;7.18;1.50;;;22.50;58.50;;;;;;5203494;28;20041;-82
2021/10/13 00:30:10;;;;;;;6.05;1.80;;;22.50;58.50;;;;;;5206884;28;20053;-82
2021/10/13 00:32:43;;;;;;;5.37;1.50;;;22.50;58.50;;;;;;5200450;28;20071;-82
2021/10/13 00:35:15;;;;;;;4.38;1.40;;;22.50;58.40;;;;;;5189834;28;20033;-81
2021/10/13 00:37:48;;;;;;;1.95;1.25;;;22.50;58.40;;;;;;5212874;28;20095;-82
2021/10/13 00:40:21;;;;;;;7.95;2.20;;;22.50;58.40;;;;;;5199087;28;20045;-83
2021/10/13 00:42:53;;;;;;;3.23;1.40;;;22.50;58.40;;;;;;5208658;28;20045;-81
2021/10/13 00:45:26;;;;;;;4.50;1.60;;;22.50;58.30;;;;;;5209926;28;20451;-82
2021/10/13 00:47:58;;;;;;;3.92;1.92;;;22.50;58.30;;;;;;5213202;28;20044;-82
2021/10/13 00:50:31;;;;;;;4.95;1.20;;;22.50;58.40;;;;;;5213012;28;21350;-82
2021/10/13 00:53:03;;;;;;;9.95;1.80;;;22.50;58.30;;;;;;5192033;28;20060;-82
2021/10/13 00:55:36;;;;;;;2.13;1.58;;;22.40;58.20;;;;;;5209044;28;20552;-83
2021/10/13 00:58:08;;;;;;;2.58;1.42;;;22.50;58.20;;;;;;5205713;28;20071;-82
2021/10/13 01:00:44;;;;;;;4.57;1.67;;;22.40;58.10;;;;;;5199520;28;20454;-83
2021/10/13 01:03:36;;;;;;;3.40;1.15;;;22.40;58.10;;;;;;5214177;28;20045;-83
2021/10/13 01:06:22;;;;;;;1.85;1.20;;;22.40;58.00;;;;;;5196939;28;20049;-83
2021/10/13 01:09:31;;;;;;;1.55;1.15;;;22.40;58.00;;;;;;5206327;28;20052;-82
2021/10/13 01:12:10;;;;;;;1.95;1.20;;;22.40;58.00;;;;;;5204538;28;20052;-80
2021/10/13 01:15:13;;;;;;;2.67;1.20;;;22.40;58.00;;;;;;5205787;28;20409;-82
2021/10/13 01:18:03;;;;;;;2.97;1.65;;;22.40;58.00;;;;;;5205683;28;20511;-81
2021/10/13 01:20:55;;;;;;;1.70;1.02;;;22.40;58.00;;;;;;5210801;28;20057;-81
2021/10/13 01:24:00;;;;;;;2.30;1.30;;;22.40;58.00;;;;;;5210451;28;20053;-81
2021/10/13 01:27:07;;;;;;;1.60;1.10;;;22.40;57.90;;;;;;5204966;28;20128;-81
2021/10/13 01:29:41;;;;;;;2.65;1.20;;;22.40;57.90;;;;;;5205690;28;20064;-82
2021/10/13 01:32:20;;;;;;;4.63;1.30;;;22.40;58.00;;;;;;5209158;28;20041;-82
2021/10/13 01:35:01;;;;;;;1.65;1.00;;;22.40;58.00;;;;;;5207768;28;20089;-82
2021/10/13 01:37:48;;;;;;;1.15;0.90;;;22.40;58.00;;;;;;5207582;28;20056;-82
2021/10/13 01:40:25;;;;;;;3.75;1.25;;;22.40;58.00;;;;;;5203763;28;20442;-82
2021/10/13 01:43:04;;;;;;;2.05;0.95;;;22.40;58.00;;;;;;5210831;28;20463;-82
2021/10/13 01:45:39;;;;;;;3.42;1.33;;;22.40;57.90;;;;;;5208193;28;20045;-81
2021/10/13 01:48:17;;;;;;;2.35;1.00;;;22.40;57.90;;;;;;5208172;28;20521;-82
2021/10/13 01:50:52;;;;;;;2.20;1.23;;;22.30;57.80;;;;;;5208254;28;20046;-81
2021/10/13 01:53:25;;;;;;;3.60;0.88;;;22.40;57.90;;;;;;5205361;28;20056;-81
2021/10/13 01:55:58;;;;;;;1.58;0.90;;;22.40;57.90;;;;;;5190253;28;20601;-81
2021/10/13 01:58:32;;;;;;;1.60;1.00;;;22.30;57.80;;;;;;5224562;28;20060;-81
2021/10/13 02:01:10;;;;;;;1.75;0.90;;;22.30;57.80;;;;;;5208464;28;20053;-82
2021/10/13 02:03:46;;;;;;;1.52;0.95;;;22.30;57.70;;;;;;5213330;28;20049;-82
2021/10/13 02:06:41;;;;;;;3.47;1.17;;;22.30;58.40;;;;;;5202753;28;20056;-82
2021/10/13 02:09:20;;;;;;;1.95;1.10;;;22.40;57.70;;;;;;5208346;28;20041;-82
2021/10/13 02:11:56;;;;;;;1.50;1.08;;;22.40;57.70;;;;;;5225915;28;20359;-81
2021/10/13 02:14:31;;;;;;;2.00;0.93;;;22.30;57.60;;;;;;5209572;28;20037;-81
2021/10/13 02:17:07;;;;;;;1.58;0.98;;;22.30;57.60;;;;;;5224042;28;20060;-81
2021/10/13 02:19:41;;;;;;;1.90;0.88;;;22.30;57.60;;;;;;5191479;28;20422;-81
2021/10/13 02:22:16;;;;;;;4.05;0.88;;;22.30;57.50;;;;;;5185919;28;20055;-81
2021/10/13 02:24:51;;;;;;;2.83;0.90;;;22.30;57.50;;;;;;5210064;28;20057;-81
2021/10/13 02:27:32;;;;;;;1.67;0.70;;;22.30;57.50;;;;;;5190955;28;20063;-81
2021/10/13 02:30:07;;;;;;;4.25;1.25;;;22.30;57.50;;;;;;5207007;28;20529;-81
2021/10/13 02:32:40;;;;;;;2.33;0.90;;;22.30;57.50;;;;;;5203702;28;20049;-81
2021/10/13 02:35:12;;;;;;;0.93;0.65;;;22.30;57.60;;;;;;5201238;28;20037;-81
2021/10/13 02:37:45;;;;;;;1.98;1.15;;;22.30;57.50;;;;;;5190461;28;20056;-81
2021/10/13 02:40:18;;;;;;;3.17;1.00;;;22.30;57.60;;;;;;5181394;28;20072;-81
2021/10/13 02:42:52;;;;;;;2.43;0.90;;;22.30;57.60;;;;;;5203501;28;20311;-81
2021/10/13 02:45:25;;;;;;;5.55;0.70;;;22.30;57.70;;;;;;5203741;28;20057;-81
2021/10/13 02:48:02;;;;;;;1.27;0.90;;;22.30;57.80;;;;;;5207664;28;20045;-81
2021/10/13 02:50:40;;;;;;;1.00;0.70;;;22.30;57.70;;;;;;5184917;28;20060;-81
2021/10/13 02:53:28;;;;;;;1.30;0.80;;;22.30;57.70;;;;;;5188607;28;20050;-81
2021/10/13 02:56:20;;;;;;;1.00;0.90;;;22.30;57.70;;;;;;5208098;28;20334;-81
2021/10/13 02:58:55;;;;;;;1.02;0.70;;;22.30;57.80;;;;;;5190999;28;20037;-81
2021/10/13 03:01:37;;;;;;;1.70;1.02;;;22.40;57.90;;;;;;5222716;28;20041;-81
2021/10/13 03:04:16;;;;;;;1.08;0.70;;;22.40;57.90;;;;;;5205427;28;20075;-81
2021/10/13 03:07:04;;;;;;;1.55;1.05;;;22.40;57.90;;;;;;5206702;28;20049;-81
2021/10/13 03:09:40;;;;;;;2.67;0.80;;;22.40;58.60;;;;;;5208725;28;20051;-81
2021/10/13 03:12:14;;;;;;;3.30;1.30;;;22.30;57.90;;;;;;5206235;28;20045;-81
2021/10/13 03:14:49;;;;;;;1.92;0.98;;;22.30;57.90;;;;;;5208899;28;20363;-81
2021/10/13 03:17:23;;;;;;;0.82;0.65;;;22.30;57.90;;;;;;5208611;28;20498;-81
2021/10/13 03:19:57;;;;;;;1.67;0.90;;;22.40;58.00;;;;;;5208720;28;20051;-81
2021/10/13 03:22:30;;;;;;;;;;;22.30;57.90;;;;;;5209345;28;20045;-81
2021/10/13 03:25:03;;;;;;;1.00;0.70;;;22.30;58.00;;;;;;5208740;28;19931;-81
2021/10/13 03:27:36;;;;;;;1.80;1.20;;;22.30;58.00;;;;;;5208787;28;20516;-81
2021/10/13 03:30:09;;;;;;;1.20;0.75;;;22.30;58.00;;;;;;5209184;28;20503;-81
2021/10/13 03:32:46;;;;;;;2.83;0.80;;;22.30;58.00;;;;;;5223028;28;20489;-81
2021/10/13 03:35:21;;;;;;;1.48;0.77;;;22.30;58.00;;;;;;5205883;28;20045;-81
2021/10/13 03:37:55;;;;;;;1.05;0.80;;;22.40;58.10;;;;;;5208521;28;20052;-81
2021/10/13 03:40:30;;;;;;;1.00;0.70;;;22.40;58.10;;;;;;5209296;28;20517;-81
2021/10/13 03:43:03;;;;;;;2.05;0.70;;;22.40;58.10;;;;;;5204858;28;20060;-81
2021/10/13 03:45:35;;;;;;;0.77;0.77;;;22.40;58.00;;;;;;5213587;28;20075;-81
2021/10/13 03:48:08;;;;;;;1.50;0.80;;;22.40;58.10;;;;;;5208120;28;20044;-81
2021/10/13 03:50:41;;;;;;;1.77;0.90;;;22.40;58.10;;;;;;5203668;28;20061;-81
2021/10/13 03:53:13;;;;;;;1.77;0.65;;;22.40;58.10;;;;;;5202490;28;20045;-81
2021/10/13 03:55:45;;;;;;;1.45;0.80;;;22.40;58.10;;;;;;5206071;28;20056;-81
2021/10/13 03:58:18;;;;;;;0.82;0.68;;;22.40;58.10;;;;;;5207492;28;20049;-81
2021/10/13 04:00:50;;;;;;;1.05;0.80;;;22.40;58.10;;;;;;5184116;28;20049;-81
2021/10/13 04:03:23;;;;;;;2.10;0.77;;;22.40;58.10;;;;;;5187487;28;20060;-81
2021/10/13 04:05:56;;;;;;;1.02;0.80;;;22.40;58.80;;;;;;5198885;28;20049;-81
2021/10/13 04:08:28;;;;;;;1.33;0.90;;;22.40;58.10;;;;;;5183338;28;20123;-81
2021/10/13 04:11:01;;;;;;;0.98;0.75;;;22.40;58.10;;;;;;5200745;28;20037;-81
2021/10/13 04:13:34;;;;;;;1.80;1.10;;;22.40;58.10;;;;;;5202112;28;20045;-81
2021/10/13 04:16:07;;;;;;;0.70;0.70;;;22.40;58.30;;;;;;5191351;28;20306;-81
2021/10/13 04:18:39;;;;;;;2.25;0.70;;;22.40;58.20;;;;;;5170134;28;20076;-81
2021/10/13 04:21:12;;;;;;;1.00;0.63;;;22.40;58.20;;;;;;5192859;28;20140;-81
2021/10/13 04:23:44;;;;;;;1.65;1.08;;;22.40;58.20;;;;;;5189582;28;20843;-81
2021/10/13 04:26:17;;;;;;;0.70;0.60;;;22.40;58.20;;;;;;5204996;28;20064;-81
2021/10/13 04:28:49;;;;;;;1.02;0.60;;;22.40;58.20;;;;;;5191152;28;20041;-81
2021/10/13 04:31:22;;;;;;;5.18;1.00;;;22.40;58.20;;;;;;5201496;28;20514;-82
2021/10/13 04:33:54;;;;;;;1.10;1.00;;;22.40;58.20;;;;;;5199508;28;20052;-81
2021/10/13 04:36:27;;;;;;;2.83;0.85;;;22.40;58.20;;;;;;5181720;28;20056;-81
2021/10/13 04:39:04;;;;;;;1.55;0.80;;;22.40;58.20;;;;;;5202533;28;20054;-81
2021/10/13 04:41:37;;;;;;;1.73;0.88;;;22.40;58.20;;;;;;5201134;28;20041;-80
2021/10/13 04:44:09;;;;;;;4.50;0.97;;;22.40;58.20;;;;;;5196108;28;20056;-80
2021/10/13 04:46:42;;;;;;;3.22;1.20;;;22.40;58.20;;;;;;5178892;28;20064;-81
2021/10/13 04:49:14;;;;;;;3.10;0.80;;;22.50;58.20;;;;;;5196078;28;20464;-80
2021/10/13 04:51:47;;;;;;;10.02;1.23;;;22.50;58.30;;;;;;5197102;28;20046;-81
2021/10/13 04:54:19;;;;;;;1.30;0.80;;;22.50;58.30;;;;;;5196308;28;20418;-81
2021/10/13 04:56:52;;;;;;;3.75;1.08;;;22.50;58.30;;;;;;5201769;28;20692;-82
2021/10/13 04:59:24;;;;;;;5.35;0.80;;;22.50;58.30;;;;;;5181070;28;20479;-81
2021/10/13 05:01:57;;;;;;;5.07;0.93;;;22.50;58.30;;;;;;5208988;28;20037;-80
2021/10/13 05:04:29;;;;;;;4.07;0.93;;;22.60;58.30;;;;;;5209393;28;20052;-80
2021/10/13 05:07:02;;;;;;;5.22;1.33;;;22.60;58.30;;;;;;5197862;28;20053;-80
2021/10/13 05:09:35;;;;;;;12.77;2.63;;;22.60;58.40;;;;;;5195357;28;20056;-79
2021/10/13 05:12:08;;;;;;;17.08;2.67;;;22.60;58.40;;;;;;5197502;28;20041;-79
2021/10/13 05:14:40;;;;;;;10.10;2.28;;;22.60;58.60;;;;;;5187099;28;20045;-80
2021/10/13 05:17:12;;;;;;;11.77;1.75;;;22.60;58.60;;;;;;5174663;28;20056;-80
2021/10/13 05:19:45;;;;;;;24.75;2.22;;;22.60;58.60;;;;;;5191406;28;20045;-80
2021/10/13 05:22:17;;;;;;;11.23;1.92;;;22.60;58.60;;;;;;5194620;28;20052;-81
2021/10/13 05:24:50;;;;;;;7.50;1.50;;;22.60;58.60;;;;;;5195090;28;20055;-81
2021/10/13 05:27:23;;;;;;;11.30;1.60;;;22.60;58.60;;;;;;5188985;28;20037;-81
2021/10/13 05:29:55;;;;;;;12.38;1.65;;;22.70;58.60;;;;;;5198063;28;20045;-81
2021/10/13 05:32:28;;;;;;;9.88;1.50;;;22.70;58.60;;;;;;5177365;28;20049;-81
2021/10/13 05:35:00;;;;;;;10.20;1.90;;;22.70;58.60;;;;;;5193559;28;20053;-81
2021/10/13 05:37:33;;;;;;;11.45;2.08;;;22.70;58.60;;;;;;5182858;28;20060;-80
2021/10/13 05:40:06;;;;;;;13.00;1.73;;;22.60;58.50;;;;;;5171807;28;20324;-81
2021/10/13 05:42:39;;;;;;;2.83;1.40;;;22.70;58.50;;;;;;5187068;28;20553;-81
2021/10/13 05:45:11;;;;;;;10.73;2.03;;;22.70;58.50;;;;;;5180590;28;20612;-81
2021/10/13 05:47:44;;;;;;;8.67;1.50;;;22.70;58.50;;;;;;5196737;28;20049;-80
2021/10/13 05:50:16;;;;;;;7.88;1.45;;;22.70;58.50;;;;;;5164020;28;20068;-80
2021/10/13 05:52:49;;;;;;;12.45;1.85;;;22.70;58.40;;;;;;5193907;28;20059;-80
2021/10/13 05:55:41;;;;;;;6.53;1.60;;;22.70;58.40;;;;;;5194596;28;20045;-80
2021/10/13 05:58:16;;;;;;;6.78;1.73;;;22.70;58.40;;;;;;5193154;28;20544;-80
2021/10/13 06:00:49;;;;;;;9.63;1.95;;;22.70;58.40;;;;;;5182922;28;20060;-81
2021/10/13 06:03:22;;;;;;;5.50;1.42;;;22.70;58.40;;;;;;5158463;28;20045;-80
2021/10/13 06:05:54;;;;;;;8.02;1.52;;;22.70;58.40;;;;;;5188604;28;20049;-80
2021/10/13 06:08:26;;;;;;;6.60;1.48;;;22.70;58.40;;;;;;5186015;28;20060;-80
2021/10/13 06:10:59;;;;;;;3.40;1.35;;;22.70;58.40;;;;;;5171227;28;20052;-80
2021/10/13 06:13:31;;;;;;;8.23;1.67;;;22.70;58.40;;;;;;5169847;28;20298;-80
2021/10/13 06:16:07;;;;;;;4.07;1.63;;;22.80;58.40;;;;;;5200085;28;20040;-80
2021/10/13 06:18:40;;;;;;;4.80;1.45;;;22.70;58.40;;;;;;5173959;28;20060;-80
2021/10/13 06:21:13;;;;;;;3.25;1.30;;;22.80;58.30;;;;;;5191507;28;20037;-80
2021/10/13 06:23:47;;;;;;;7.15;1.27;;;22.80;58.30;;;;;;5197865;28;20194;-80
2021/10/13 06:26:21;;;;;;;5.65;1.45;;;22.80;58.30;;;;;;5200952;28;20379;-80
2021/10/13 06:28:53;;;;;;;8.35;1.27;;;22.80;58.30;;;;;;5205559;28;20077;-79
2021/10/13 06:31:26;;;;;;;6.00;1.20;;;22.80;58.20;;;;;;5175211;28;20053;-80
2021/10/13 06:33:59;;;;;;;3.83;1.63;;;22.80;58.80;;;;;;5187216;28;20394;-80
2021/10/13 06:36:32;;;;;;;4.70;1.52;;;22.80;58.10;;;;;;5193334;28;20056;-80
2021/10/13 06:39:04;;;;;;;3.57;1.20;;;22.80;58.10;;;;;;5196945;28;20617;-80
2021/10/13 06:41:37;;;;;;;3.83;1.42;;;22.80;58.10;;;;;;5186762;28;20052;-80
2021/10/13 06:44:12;;;;;;;5.03;1.05;;;22.80;58.00;;;;;;5184622;28;20049;-80
2021/10/13 06:46:45;;;;;;;3.55;1.17;;;22.80;58.00;;;;;;5185358;28;20045;-80
2021/10/13 06:49:18;;;;;;;5.75;1.42;;;22.80;58.00;;;;;;5201505;28;20048;-82
2021/10/13 06:51:50;;;;;;;4.15;1.30;;;22.80;58.00;;;;;;5207830;28;20060;-80
2021/10/13 06:54:23;;;;;;;3.10;1.33;;;22.80;58.00;;;;;;5204323;28;20045;-80
2021/10/13 06:56:56;;;;;;;2.10;1.13;;;22.80;58.00;;;;;;5219489;28;20045;-80
2021/10/13 06:59:28;;;;;;;1.50;1.00;;;22.80;58.00;;;;;;5181783;28;20048;-80
2021/10/13 07:02:01;;;;;;;2.70;1.17;;;22.80;58.00;;;;;;5182240;28;20302;-80
2021/10/13 07:04:34;;;;;;;5.22;1.10;;;22.80;58.00;;;;;;5200069;28;20154;-80
2021/10/13 07:07:07;;;;;;;5.57;1.63;;;22.80;57.90;;;;;;5178169;28;20049;-80
2021/10/13 07:09:39;;;;;;;1.63;1.05;;;22.80;57.90;;;;;;5201649;28;20045;-80
2021/10/13 07:12:12;;;;;;;2.73;1.20;;;22.90;58.00;;;;;;5200887;28;20665;-80
2021/10/13 07:14:44;;;;;;;2.25;1.45;;;22.90;58.00;;;;;;5171332;28;20418;-80
2021/10/13 07:17:17;;;;;;;6.88;1.20;;;22.90;58.00;;;;;;5201203;28;20064;-80
2021/10/13 07:19:49;;;;;;;4.57;1.10;;;22.90;58.00;;;;;;5179398;28;20053;-80
2021/10/13 07:22:22;;;;;;;2.92;1.10;;;22.90;57.90;;;;;;5205568;28;20052;-80
2021/10/13 07:24:56;;;;;;;4.63;1.57;;;22.90;58.00;;;;;;5194724;28;20056;-80
2021/10/13 07:27:29;;;;;;;3.50;1.00;;;22.90;57.90;;;;;;5185837;28;20045;-80
2021/10/13 07:30:03;;;;;;;5.50;1.17;;;22.90;57.90;;;;;;5205886;28;20048;-80
2021/10/13 07:32:36;;;;;;;2.67;1.33;;;22.90;57.90;;;;;;5207600;28;20056;-80
2021/10/13 07:35:27;;;;;;;2.25;1.40;;;22.90;57.90;;;;;;5192969;28;20049;-80
2021/10/13 07:38:01;;;;;;;3.05;1.58;;;22.90;57.90;;;;;;5202034;28;20485;-80
2021/10/13 07:40:34;;;;;;;6.30;1.20;;;22.90;57.90;;;;;;5204275;28;20076;-80
2021/10/13 07:43:07;;;;;;;2.60;1.30;;;22.90;58.00;;;;;;5202050;28;20604;-80
2021/10/13 07:45:43;;;;;;;4.28;1.02;;;22.90;57.90;;;;;;5187145;28;20422;-80
2021/10/13 07:48:16;;;;;;;4.65;2.17;;;22.90;58.00;;;;;;5202110;28;20391;-79
2021/10/13 07:50:48;;;;;;;3.53;1.20;;;22.90;57.90;;;;;;5218947;28;20063;-80
2021/10/13 07:53:21;;;;;;;4.38;1.23;;;22.90;57.90;;;;;;5190990;28;20044;-81
2021/10/13 07:55:55;;;;;;;5.00;1.67;;;22.90;57.90;;;;;;5184214;28;20048;-80
2021/10/13 07:58:28;;;;;;;2.92;1.02;;;22.90;58.00;;;;;;5203262;28;20383;-80
2021/10/13 08:01:00;;;;;;;4.65;0.90;;;22.90;58.00;;;;;;5184146;28;20041;-79
2021/10/13 08:03:33;;;;;;;2.50;1.17;;;22.90;58.00;;;;;;5202951;28;20056;-81
2021/10/13 08:06:07;;;;;;;2.63;1.10;;;22.90;58.00;;;;;;5194171;28;20045;-79
2021/10/13 08:08:40;;;;;;;2.42;1.20;;;22.90;58.00;;;;;;5204427;28;20059;-82
2021/10/13 08:11:12;;;;;;;2.13;1.10;;;22.90;58.00;;;;;;5206626;28;20045;-82
2021/10/13 08:13:45;;;;;;;2.37;1.10;;;22.90;58.00;;;;;;5203481;28;20072;-82
2021/10/13 08:16:17;;;;;;;3.17;1.40;;;22.90;58.00;;;;;;5204752;28;20045;-83
2021/10/13 08:18:50;;;;;;;9.10;1.50;;;22.90;58.00;;;;;;5202410;28;20060;-81
2021/10/13 08:21:22;;;;;;;2.05;0.95;;;23.00;58.00;;;;;;5180860;28;20521;-82
2021/10/13 08:23:55;;;;;;;1.45;1.00;;;23.00;58.00;;;;;;5203987;28;20038;-81
2021/10/13 08:26:27;;;;;;;2.97;1.33;;;23.00;58.00;;;;;;5188980;28;20652;-81
2021/10/13 08:29:00;;;;;;;2.55;1.00;;;23.00;58.10;;;;;;5199994;28;20049;-80
2021/10/13 08:31:32;;;;;;;1.73;1.20;;;23.00;58.00;;;;;;5190367;28;20430;-82
2021/10/13 08:34:05;;;;;;;4.00;0.93;;;23.00;58.00;;;;;;5183606;28;20502;-81
2021/10/13 08:36:38;;;;;;;4.18;1.50;;;23.00;58.10;;;;;;5164697;28;20052;-82
2021/10/13 08:39:11;;;;;;;3.97;1.42;;;23.00;58.70;;;;;;5168152;28;20083;-82
2021/10/13 08:41:44;;;;;;;2.80;1.10;;;23.00;58.10;;;;;;5193985;28;20307;-81
2021/10/13 08:44:17;;;;;;;2.80;1.10;;;23.00;58.70;;;;;;5196026;28;20513;-82
2021/10/13 08:46:49;;;;;;;1.30;1.00;;;23.00;58.10;;;;;;5182863;28;20506;-82
2021/10/13 08:49:22;;;;;;;5.25;1.27;;;23.00;58.10;;;;;;5186765;28;20049;-82
2021/10/13 08:51:55;;;;;;;1.65;1.00;;;23.00;58.10;;;;;;5193290;28;20048;-82
2021/10/13 08:54:28;;;;;;;2.03;1.48;;;23.00;58.10;;;;;;5193340;28;20041;-80
2021/10/13 08:57:00;;;;;;;5.20;1.23;;;23.00;58.10;;;;;;5188177;28;20045;-79
2021/10/13 08:59:40;;;;;;;1.52;0.95;;;23.00;58.10;;;;;;5184212;28;20532;-82
2021/10/13 09:02:15;;;;;;;4.00;0.90;;;23.00;58.20;;;;;;5167947;28;20049;-81
2021/10/13 09:05:11;;;;;;;1.77;1.00;;;23.00;58.20;;;;;;5190919;28;20037;-80
2021/10/13 09:07:49;;;;;;;5.55;1.75;;;23.00;58.20;;;;;;5197229;28;20292;-81
2021/10/13 09:10:36;;;;;;;3.53;0.88;;;23.00;58.30;;;;;;5181350;28;20052;-80
2021/10/13 09:13:15;;;;;;;3.40;1.00;;;23.00;58.30;;;;;;5199650;28;20048;-80
2021/10/13 09:15:52;;;;;;;4.78;1.42;;;23.00;58.40;;;;;;5200197;28;20041;-81
2021/10/13 09:18:24;;;;;;;2.55;1.17;;;23.00;58.40;;;;;;5201490;28;20042;-81
2021/10/13 09:20:58;;;;;;;4.55;1.25;;;23.00;58.50;;;;;;5205149;28;20056;-81
2021/10/13 09:23:30;;;;;;;2.88;1.10;;;23.00;58.50;;;;;;5170242;28;20059;-80
2021/10/13 09:26:10;;;;;;;1.67;1.03;;;23.00;58.50;;;;;;5181553;28;20446;-81
2021/10/13 09:28:58;;;;;;;3.00;1.00;;;23.00;58.50;;;;;;5187993;28;20577;-82
2021/10/13 09:31:31;;;;;;;4.70;1.65;;;23.00;58.50;;;;;;5207323;28;20064;-83
2021/10/13 09:34:09;;;;;;;4.45;1.20;;;23.00;58.70;;;;;;5209053;28;20669;-82
2021/10/13 09:36:44;;;;;;;1.85;1.05;;;23.00;58.60;;;;;;5199463;28;20052;-81
2021/10/13 09:39:19;;;;;;;5.25;1.02;;;23.00;58.60;;;;;;4153572;28;10000666;-80
2021/10/13 09:42:12;;;;;;;10.10;1.38;;;23.00;58.70;;;;;;5210784;28;20052;-80
2021/10/13 09:44:56;;;;;;;7.17;1.17;;;23.00;58.80;;;;;;5222947;28;20049;-80
2021/10/13 09:47:30;;;;;;;2.03;1.10;;;23.00;58.60;;;;;;5174275;28;20051;-80
2021/10/13 09:50:11;;;;;;;4.53;1.40;;;23.00;58.60;;;;;;5206156;28;20040;-80
2021/10/13 09:52:44;;;;;;;3.28;1.20;;;23.00;58.60;;;;;;5191794;28;20076;-80
2021/10/13 09:55:16;;;;;;;1.60;0.95;;;23.00;58.60;;;;;;5184615;28;20053;-81
2021/10/13 09:57:49;;;;;;;4.22;1.20;;;23.10;58.60;;;;;;5201580;28;20056;-81
2021/10/13 10:00:23;;;;;;;2.63;1.05;;;23.10;58.60;;;;;;5204673;28;20491;-81
2021/10/13 10:02:57;;;;;;;;;;;23.10;58.60;;;;;;5195327;28;20056;-82
2021/10/13 10:05:32;;;;;;;2.25;1.00;;;23.00;58.60;;;;;;5187693;28;19932;-81
2021/10/13 10:08:09;;;;;;;4.28;1.20;;;23.00;58.60;;;;;;5182265;28;20053;-81
2021/10/13 10:11:05;;;;;;;1.85;1.20;;;23.00;58.50;;;;;;5204293;28;20045;-81
2021/10/13 10:13:42;;;;;;;4.57;2.85;;;23.00;58.50;;;;;;5203188;28;20045;-80
2021/10/13 10:16:32;;;;;;;6.45;2.20;;;23.00;58.50;;;;;;5194214;28;20041;-82
2021/10/13 10:19:21;;;;;;;3.45;1.80;;;23.00;58.30;;;;;;5189846;28;20053;-80
2021/10/13 10:22:06;;;;;;;4.07;2.08;;;23.00;58.40;;;;;;5195665;28;20049;-81
2021/10/13 10:24:49;;;;;;;4.38;2.03;;;23.00;58.50;;;;;;5184242;28;20072;-81
2021/10/13 10:27:35;;;;;;;;;;;23.00;58.40;;;;;;5188613;28;20041;-80
2021/10/13 10:30:07;;;;;;;3.15;2.13;;;23.00;58.50;;;;;;5200676;28;19929;-80
2021/10/13 10:33:06;;;;;;;5.32;2.33;;;23.00;58.40;;;;;;5193999;28;20499;-82
2021/10/13 10:35:44;;;;;;;4.60;1.90;;;23.00;58.30;;;;;;5183722;28;20099;-82
2021/10/13 10:38:46;;;;;;;3.58;1.90;;;23.10;58.20;;;;;;5194872;28;20052;-81
2021/10/13 10:41:18;;;;;;;4.65;2.30;;;23.20;58.10;;;;;;5171643;28;20056;-81
2021/10/13 10:43:51;;;;;;;3.50;2.10;;;23.20;58.00;;;;;;5191722;28;21009;-82
2021/10/13 10:46:58;;;;;;;5.28;1.85;;;23.20;58.00;;;;;;5193968;28;20049;-80
2021/10/13 10:49:46;;;;;;;3.47;2.25;;;23.20;58.00;;;;;;5190407;28;20059;-82
2021/10/13 10:52:22;;;;;;;3.65;2.05;;;23.20;58.00;;;;;;5197432;28;20045;-82
2021/10/13 10:55:10;;;;;;;4.43;2.33;;;23.10;58.00;;;;;;5187140;28;20041;-82
2021/10/13 10:57:47;;;;;;;4.72;2.17;;;23.10;57.90;;;;;;5207089;28;20056;-81
2021/10/13 11:00:23;;;;;;;2.92;2.13;;;23.10;58.00;;;;;;5205956;28;20041;-82
2021/10/13 11:03:19;;;;;;;5.50;2.50;;;23.10;57.90;;;;;;5200657;28;20056;-81
2021/10/13 11:05:56;;;;;;;5.65;2.40;;;23.10;57.90;;;;;;5204678;28;20410;-81
2021/10/13 11:08:29;;;;;;;2.97;2.15;;;23.20;57.90;;;;;;5184480;28;20593;-81
2021/10/13 11:11:15;;;;;;;8.43;3.10;;;23.20;57.90;;;;;;5194964;28;20044;-82
2021/10/13 11:14:04;;;;;;;4.63;2.80;;;23.20;57.70;;;;;;5157557;28;20048;-80
2021/10/13 11:16:47;;;;;;;5.43;2.70;;;23.20;57.70;;;;;;5164868;28;21430;-82
2021/10/13 11:19:34;;;;;;;4.20;2.80;;;23.30;57.70;;;;;;5178076;28;20064;-81
2021/10/13 11:22:11;;;;;;;6.45;3.03;;;23.30;57.80;;;;;;5187046;28;20091;-81
2021/10/13 11:24:48;;;;;;;3.55;2.72;;;23.20;57.70;;;;;;5191396;28;20401;-79
2021/10/13 11:27:24;;;;;;;6.18;3.38;;;23.20;57.70;;;;;;5197638;28;21251;-81
2021/10/13 11:29:56;;;;;;;4.20;2.83;;;23.20;57.70;;;;;;5179348;28;20045;-80
2021/10/13 11:32:40;;;;;;;3.70;2.97;;;23.20;57.70;;;;;;5181585;28;20048;-80
2021/10/13 11:35:17;;;;;;;4.22;2.90;;;23.20;57.70;;;;;;5179294;28;20373;-80
2021/10/13 11:37:52;;;;;;;5.57;2.95;;;23.20;57.80;;;;;;5207118;28;20041;-80
2021/10/13 11:40:26;;;;;;;4.70;2.90;;;23.20;57.80;;;;;;5185346;28;20581;-80
2021/10/13 11:43:06;;;;;;;5.35;3.05;;;23.20;57.90;;;;;;5202311;28;20049;-80
2021/10/13 11:45:49;;;;;;;3.85;3.00;;;23.20;57.90;;;;;;5202822;28;20059;-79
2021/10/13 11:48:24;;;;;;;7.45;4.07;;;23.20;57.90;;;;;;5204016;28;20517;-81
2021/10/13 11:51:00;;;;;;;4.10;3.22;;;23.20;57.90;;;;;;5188817;28;20783;-79
2021/10/13 11:53:32;;;;;;;4.85;3.40;;;23.30;57.90;;;;;;5199895;28;20049;-81
2021/10/13 11:56:13;;;;;;;3.63;2.95;;;23.30;57.80;;;;;;5193546;28;20041;-81
2021/10/13 11:58:48;;;;;;;3.38;3.08;;;23.30;57.80;;;;;;5185451;28;20470;-80
2021/10/13 12:01:27;;;;;;;5.65;2.92;;;23.40;57.70;;;;;;5176884;28;20053;-80
2021/10/13 12:04:00;;;;;;;10.00;3.28;;;23.50;57.80;;;;;;5198288;28;20049;-81
2021/10/13 12:06:43;;;;;;;4.30;3.30;;;23.50;57.70;;;;;;5184223;28;20049;-82
2021/10/13 12:09:16;;;;;;;3.50;3.03;;;23.50;57.70;;;;;;5194917;28;20041;-80
2021/10/13 12:11:48;;;;;;;5.63;3.00;;;23.50;57.60;;;;;;5196123;28;20037;-80
2021/10/13 12:14:21;;;;;;;4.75;3.30;;;23.50;57.70;;;;;;5191714;28;20045;-80
2021/10/13 12:17:25;;;;;;;4.43;2.85;;;23.50;57.60;;;;;;5180136;28;20053;-81
2021/10/13 12:19:59;;;;;;;3.72;3.25;;;23.50;57.70;;;;;;5199270;28;20045;-81
2021/10/13 12:22:50;;;;;;;8.43;3.30;;;23.50;57.80;;;;;;5200130;28;20040;-80
2021/10/13 12:25:31;;;;;;;5.78;3.20;;;23.50;57.80;;;;;;5204473;28;20057;-80
2021/10/13 12:28:15;;;;;;;5.03;3.30;;;23.40;57.80;;;;;;5203393;28;20055;-81
2021/10/13 12:31:02;;;;;;;6.15;2.80;;;23.40;57.90;;;;;;5179851;28;20047;-81
2021/10/13 12:33:50;;;;;;;6.35;3.20;;;23.40;57.90;;;;;;5203390;28;20089;-80
2021/10/13 12:36:31;;;;;;;5.30;3.08;;;23.50;57.90;;;;;;5207001;28;20398;-80
2021/10/13 12:39:19;;;;;;;3.88;2.90;;;23.50;57.80;;;;;;5207565;28;20049;-81
2021/10/13 12:42:01;;;;;;;7.25;3.38;;;23.50;57.80;;;;;;5212895;28;20044;-81
2021/10/13 12:44:34;;;;;;;5.05;2.97;;;23.50;57.90;;;;;;5203260;28;20052;-79
2021/10/13 12:47:08;;;;;;;5.00;2.95;;;23.50;57.90;;;;;;5208117;28;20056;-80
2021/10/13 12:49:45;;;;;;;4.10;2.90;;;23.50;57.80;;;;;;5205192;28;20053;-81
2021/10/13 12:52:20;;;;;;;6.82;3.10;;;23.60;57.80;;;;;;4502159;28;10000863;-79
2021/10/13 12:54:57;;;;;;;2.83;2.63;;;23.60;57.80;;;;;;5192499;28;20055;-81
2021/10/13 12:57:31;;;;;;;6.75;3.22;;;23.60;57.80;;;;;;5181621;28;20057;-81
2021/10/13 13:45:31;;;;;;;8.05;2.95;;;24.50;56.50;;;;;;5199711;28;20071;-81
2021/10/13 13:48:05;;;;;;;6.43;2.85;;;24.50;56.60;;;;;;5177167;28;20044;-82
2021/10/13 13:50:38;;;;;;;7.53;2.85;;;24.50;56.90;;;;;;5176882;28;20052;-82
2021/10/13 13:53:10;;;;;;;7.07;2.60;;;24.60;56.80;;;;;;5155567;28;20409;-82
2021/10/13 13:55:43;;;;;;;5.18;2.70;;;24.60;56.60;;;;;;5181218;28;20045;-79
2021/10/13 13:58:16;;;;;;;4.95;2.80;;;24.70;56.60;;;;;;5177821;28;20056;-82
2021/10/13 14:00:50;;;;;;;4.63;2.40;;;24.80;56.50;;;;;;5181563;28;20040;-81
2021/10/13 14:03:22;;;;;;;4.15;2.95;;;24.90;56.40;;;;;;5157858;28;20052;-80
2021/10/13 14:05:56;;;;;;;7.47;2.67;;;24.90;56.20;;;;;;5176139;28;20041;-82
2021/10/13 14:08:28;;;;;;;8.77;2.40;;;25.00;56.20;;;;;;5180695;28;20403;-83
2021/10/13 14:11:01;;;;;;;7.05;2.50;;;25.00;56.30;;;;;;5176108;28;20620;-80
2021/10/13 14:13:33;;;;;;;4.05;2.20;;;24.90;56.40;;;;;;5171149;28;20048;-81
2021/10/13 14:16:06;;;;;;;10.15;2.10;;;24.80;56.40;;;;;;5178005;28;20052;-82
2021/10/13 14:18:39;;;;;;;13.32;2.38;;;24.80;56.50;;;;;;5173988;28;20548;-83
2021/10/13 14:21:11;;;;;;;7.63;2.60;;;24.70;56.70;;;;;;5174931;28;20057;-82